Time,TemperatureF,DewpointF,PressureIn,WindDirection,WindDirectionDegrees,WindSpeedMPH,WindSpeedGustMPH,Humidity,HourlyPrecipIn,Conditions,Clouds,dailyrainin,SoftwareType,DateUTC
2013-09-07 14:55:00,101.1,17.9,30.00,South,186,8.3,8.3,5,0.00,,---,0.00,VWS V14.01,2013-09-07 20:55:00,
2013-09-07 14:56:00,101.1,17.9,30.00,SE,139,10.1,12.3,5,0.00,,---,0.00,VWS V14.01,2013-09-07 20:56:00,
2013-09-07 15:02:00,100.6,17.5,30.00,SE,133,12.8,16.3,5,0.00,,---,0.00,VWS V14.01,2013-09-07 21:02:00,
2013-09-07 15:06:00,100.0,17.1,30.00,SE,145,10.5,15.4,5,0.00,,---,0.00,VWS V14.01,2013-09-07 21:06:00,
2013-09-07 15:11:00,99.3,16.6,30.00,East,91,5.8,6.3,5,0.00,,---,0.00,VWS V14.01,2013-09-07 21:11:00,
2013-09-07 15:16:00,99.3,16.6,30.00,SE,146,13.2,13.2,5,0.00,,---,0.00,VWS V14.01,2013-09-07 21:16:00,
2013-09-07 15:22:00,99.3,16.6,30.00,SSE,166,10.1,10.1,5,0.00,,---,0.00,VWS V14.01,2013-09-07 21:22:00,
2013-09-07 15:23:00,99.3,16.6,30.00,South,175,12.3,12.8,5,0.00,,---,0.00,VWS V14.01,2013-09-07 21:23:00,
2013-09-07 15:28:00,99.5,16.7,30.00,South,187,10.5,12.8,5,0.00,,---,0.00,VWS V14.01,2013-09-07 21:28:00,
2013-09-07 15:34:00,100.6,17.5,29.97,SSE,162,13.2,16.3,5,0.00,,---,0.00,VWS V14.01,2013-09-07 21:34:00,
2013-09-07 15:39:00,100.8,17.6,29.97,SW,218,12.3,12.3,5,0.00,,---,0.00,VWS V14.01,2013-09-07 21:39:00,
2013-09-07 15:44:00,101.1,17.9,29.97,SE,145,13.2,15.0,5,0.00,,---,0.00,VWS V14.01,2013-09-07 21:44:00,
2013-09-07 15:50:00,100.6,17.5,29.97,South,191,12.8,15.0,5,0.00,,---,0.00,VWS V14.01,2013-09-07 21:50:00,
2013-09-07 15:55:00,100.4,17.4,29.97,SSE,161,8.3,10.5,5,0.00,,---,0.00,VWS V14.01,2013-09-07 21:55:00,
2013-09-07 16:01:00,100.4,17.4,29.97,South,188,8.7,14.1,5,0.00,,---,0.00,VWS V14.01,2013-09-07 22:01:00,
2013-09-07 16:06:00,100.6,17.5,29.97,SSE,147,10.1,13.2,5,0.00,,---,0.00,VWS V14.01,2013-09-07 22:06:00,
2013-09-07 16:12:00,100.6,17.5,29.97,SE,137,15.0,16.3,5,0.00,,---,0.00,VWS V14.01,2013-09-07 22:12:00,
2013-09-07 16:18:00,100.2,17.2,29.97,ESE,120,12.8,12.8,5,0.00,,---,0.00,VWS V14.01,2013-09-07 22:18:00,
2013-09-07 16:23:00,100.0,17.1,29.97,ESE,116,16.3,17.4,5,0.00,,---,0.00,VWS V14.01,2013-09-07 22:23:00,
2013-09-07 16:30:00,99.5,16.7,29.97,South,171,7.6,11.0,5,0.00,,---,0.00,VWS V14.01,2013-09-07 22:30:00,
2013-09-07 16:35:00,99.5,16.7,29.97,SE,144,13.2,13.2,5,0.00,,---,0.00,VWS V14.01,2013-09-07 22:35:00,
2013-09-07 16:40:00,99.9,17.0,29.97,SSE,168,6.3,8.3,5,0.00,,---,0.00,VWS V14.01,2013-09-07 22:40:00,
2013-09-07 16:46:00,100.0,17.1,29.97,SSE,150,8.3,10.5,5,0.00,,---,0.00,VWS V14.01,2013-09-07 22:46:00,
2013-09-07 16:51:00,100.0,17.1,29.97,SW,218,5.8,11.0,5,0.00,,---,0.00,VWS V14.01,2013-09-07 22:51:00,
2013-09-07 16:57:00,100.0,17.1,29.97,SSE,152,5.8,5.8,5,0.00,,---,0.00,VWS V14.01,2013-09-07 22:57:00,
2013-09-07 17:03:00,100.0,17.1,29.97,South,171,5.8,11.0,5,0.00,,---,0.00,VWS V14.01,2013-09-07 23:03:00,
2013-09-07 17:08:00,99.1,16.5,29.97,SSE,160,10.1,10.1,5,0.00,,---,0.00,VWS V14.01,2013-09-07 23:08:00,
2013-09-07 17:14:00,99.1,16.5,29.97,SE,140,5.4,5.4,5,0.00,,---,0.00,VWS V14.01,2013-09-07 23:14:00,
2013-09-07 17:19:00,98.2,20.1,29.97,South,176,5.8,5.8,6,0.00,,---,0.00,VWS V14.01,2013-09-07 23:19:00,
2013-09-07 17:26:00,98.1,20.0,29.97,SSW,203,6.7,6.7,6,0.00,,---,0.00,VWS V14.01,2013-09-07 23:26:00,
2013-09-07 17:31:00,98.1,20.0,29.97,SE,140,8.1,8.1,6,0.00,,---,0.00,VWS V14.01,2013-09-07 23:31:00,
2013-09-07 17:36:00,98.2,20.1,29.97,South,186,4.0,4.0,6,0.00,,---,0.00,VWS V14.01,2013-09-07 23:36:00,
2013-09-07 17:41:00,98.1,20.0,29.97,SE,143,8.1,8.1,6,0.00,,---,0.00,VWS V14.01,2013-09-07 23:41:00,
2013-09-07 17:46:00,97.5,19.6,29.97,SE,135,10.1,10.1,6,0.00,,---,0.00,VWS V14.01,2013-09-07 23:46:00,
2013-09-07 17:51:00,97.2,19.3,29.97,ESE,120,8.7,8.7,6,0.00,,---,0.00,VWS V14.01,2013-09-07 23:51:00,
2013-09-07 17:57:00,96.3,18.7,30.00,SE,133,9.6,9.6,6,0.00,,---,0.00,VWS V14.01,2013-09-07 23:57:00,
2013-09-07 18:03:00,95.7,18.3,30.00,SE,140,8.3,8.3,6,0.00,,---,0.00,VWS V14.01,2013-09-08 00:03:00,
2013-09-07 18:08:00,95.7,18.3,30.00,SE,136,6.3,7.2,6,0.00,,---,0.00,VWS V14.01,2013-09-08 00:08:00,
2013-09-07 18:13:00,95.0,17.8,30.00,SE,136,6.3,6.3,6,0.00,,---,0.00,VWS V14.01,2013-09-08 00:13:00,
2013-09-07 18:18:00,94.6,17.5,30.00,SE,141,7.6,7.6,6,0.00,,---,0.00,VWS V14.01,2013-09-08 00:18:00,
2013-09-07 18:24:00,94.6,17.5,30.00,SE,138,7.6,8.1,6,0.00,,---,0.00,VWS V14.01,2013-09-08 00:24:00,
2013-09-07 18:29:00,93.4,16.6,30.00,SE,138,7.6,7.6,6,0.00,,---,0.00,VWS V14.01,2013-09-08 00:29:00,
2013-09-07 18:35:00,92.5,19.6,30.00,SE,128,7.6,7.6,7,0.00,,---,0.00,VWS V14.01,2013-09-08 00:35:00,
2013-09-07 18:41:00,91.9,19.2,30.00,ESE,120,5.8,7.6,7,0.00,,---,0.00,VWS V14.01,2013-09-08 00:41:00,
2013-09-07 18:46:00,91.8,19.0,30.00,ESE,105,6.3,6.3,7,0.00,,---,0.00,VWS V14.01,2013-09-08 00:46:00,
2013-09-07 18:52:00,91.6,18.9,29.97,ESE,102,7.6,7.6,7,0.00,,---,0.00,VWS V14.01,2013-09-08 00:52:00,
2013-09-07 18:57:00,91.4,18.8,29.97,ESE,110,8.1,8.1,7,0.00,,---,0.00,VWS V14.01,2013-09-08 00:57:00,
2013-09-07 19:04:00,90.1,17.9,29.97,ESE,115,7.2,7.2,7,0.00,,---,0.00,VWS V14.01,2013-09-08 01:04:00,
2013-09-07 19:09:00,88.9,20.0,30.00,ESE,104,6.3,6.7,8,0.00,,---,0.00,VWS V14.01,2013-09-08 01:09:00,
2013-09-07 19:14:00,88.9,20.0,30.00,ESE,102,7.2,7.2,8,0.00,,---,0.00,VWS V14.01,2013-09-08 01:14:00,
2013-09-07 19:20:00,87.1,18.7,30.00,ESE,104,7.2,7.2,8,0.00,,---,0.00,VWS V14.01,2013-09-08 01:20:00,
2013-09-07 19:25:00,87.1,18.7,30.00,ESE,108,6.7,6.7,8,0.00,,---,0.00,VWS V14.01,2013-09-08 01:25:00,
2013-09-07 19:30:00,85.6,17.6,30.00,ESE,104,7.6,7.6,8,0.00,,---,0.00,VWS V14.01,2013-09-08 01:30:00,
2013-09-07 19:35:00,85.3,17.4,30.00,East,99,8.1,8.1,8,0.00,,---,0.00,VWS V14.01,2013-09-08 01:35:00,
2013-09-07 19:41:00,85.3,17.4,30.00,East,92,6.7,6.7,8,0.00,,---,0.00,VWS V14.01,2013-09-08 01:41:00,
2013-09-07 19:46:00,84.7,17.0,30.00,East,94,6.7,6.7,8,0.00,,---,0.00,VWS V14.01,2013-09-08 01:46:00,
2013-09-07 19:51:00,84.0,19.2,30.00,East,88,6.7,6.7,9,0.00,,---,0.00,VWS V14.01,2013-09-08 01:51:00,
2013-09-07 19:56:00,83.5,18.8,30.00,East,87,6.3,6.3,9,0.00,,---,0.00,VWS V14.01,2013-09-08 01:56:00,
2013-09-07 20:01:00,82.9,18.4,30.00,East,92,7.2,7.2,9,0.00,,---,0.00,VWS V14.01,2013-09-08 02:01:00,
2013-09-07 20:06:00,82.8,18.2,30.00,East,94,6.7,6.7,9,0.00,,---,0.00,VWS V14.01,2013-09-08 02:06:00,
2013-09-07 20:12:00,82.4,18.0,30.00,NE,38,8.3,8.3,9,0.00,,---,0.00,VWS V14.01,2013-09-08 02:12:00,
2013-09-07 20:17:00,82.6,18.1,30.00,NE,40,10.1,10.1,9,0.00,,---,0.00,VWS V14.01,2013-09-08 02:17:00,
2013-09-07 20:23:00,82.6,18.1,30.00,NE,48,11.4,11.4,9,0.00,,---,0.00,VWS V14.01,2013-09-08 02:23:00,
2013-09-07 20:28:00,81.7,24.2,30.00,ENE,61,11.4,11.4,12,0.00,,---,0.00,VWS V14.01,2013-09-08 02:28:00,
2013-09-07 20:34:00,82.0,24.5,30.00,ENE,60,10.5,11.9,12,0.00,,---,0.00,VWS V14.01,2013-09-08 02:34:00,
2013-09-07 20:39:00,82.0,24.5,30.00,ENE,60,10.5,10.5,12,0.00,,---,0.00,VWS V14.01,2013-09-08 02:39:00,
2013-09-07 20:45:00,81.7,24.2,30.00,ENE,65,11.0,11.0,12,0.00,,---,0.00,VWS V14.01,2013-09-08 02:45:00,
2013-09-07 20:51:00,81.5,27.8,30.03,ENE,70,10.5,10.5,14,0.00,,---,0.00,VWS V14.01,2013-09-08 02:51:00,
2013-09-07 20:56:00,81.3,27.6,30.03,ENE,67,10.5,10.5,14,0.00,,---,0.00,VWS V14.01,2013-09-08 02:56:00,
2013-09-07 21:03:00,81.1,27.5,30.03,ENE,73,10.5,10.5,14,0.00,,---,0.00,VWS V14.01,2013-09-08 03:03:00,
2013-09-07 21:08:00,81.0,27.3,30.03,ENE,70,11.0,11.0,14,0.00,,---,0.00,VWS V14.01,2013-09-08 03:08:00,
2013-09-07 21:13:00,79.9,31.2,30.03,ENE,69,11.0,11.0,17,0.00,,---,0.00,VWS V14.01,2013-09-08 03:13:00,
2013-09-07 21:19:00,79.3,34.8,30.03,ENE,72,11.0,11.0,20,0.00,,---,0.00,VWS V14.01,2013-09-08 03:19:00,
2013-09-07 21:24:00,79.3,34.8,30.03,ENE,76,13.2,13.2,20,0.00,,---,0.00,VWS V14.01,2013-09-08 03:24:00,
2013-09-07 21:30:00,79.0,35.8,30.03,ENE,78,13.6,13.6,21,0.00,,---,0.00,VWS V14.01,2013-09-08 03:30:00,
2013-09-07 21:35:00,79.2,35.9,30.03,ENE,72,10.5,10.5,21,0.00,,---,0.00,VWS V14.01,2013-09-08 03:35:00,
2013-09-07 21:41:00,79.2,35.9,30.03,East,85,14.1,14.1,21,0.00,,---,0.00,VWS V14.01,2013-09-08 03:41:00,
2013-09-07 21:46:00,78.8,37.9,30.03,East,81,12.8,12.8,23,0.00,,---,0.00,VWS V14.01,2013-09-08 03:46:00,
2013-09-07 21:52:00,78.4,37.6,30.03,East,90,13.2,13.2,23,0.00,,---,0.00,VWS V14.01,2013-09-08 03:52:00,
2013-09-07 21:57:00,77.7,38.1,30.03,ESE,104,11.0,12.8,24,0.00,,---,0.00,VWS V14.01,2013-09-08 03:57:00,
2013-09-07 22:01:00,77.7,38.1,30.03,East,85,13.2,13.2,24,0.00,,---,0.00,VWS V14.01,2013-09-08 04:01:00,
2013-09-07 22:02:00,77.7,38.1,30.03,East,85,13.2,13.2,24,0.00,,---,0.00,VWS V14.01,2013-09-08 04:02:00,
2013-09-07 22:03:00,77.7,38.1,30.03,East,85,13.2,13.2,24,0.00,,---,0.00,VWS V14.01,2013-09-08 04:03:00,
2013-09-07 22:06:00,77.7,38.1,30.03,East,80,13.2,13.2,24,0.00,,---,0.00,VWS V14.01,2013-09-08 04:06:00,
2013-09-07 22:11:00,76.6,42.0,30.03,East,98,11.9,12.3,29,0.00,,---,0.00,VWS V14.01,2013-09-08 04:11:00,
2013-09-07 22:12:00,76.6,42.0,30.03,East,98,11.9,11.9,29,0.00,,---,0.00,VWS V14.01,2013-09-08 04:12:00,
2013-09-07 22:18:00,76.6,42.0,30.03,East,85,12.3,12.3,29,0.00,,---,0.00,VWS V14.01,2013-09-08 04:18:00,
2013-09-07 22:23:00,75.9,43.1,30.03,ENE,77,10.5,10.5,31,0.00,,---,0.00,VWS V14.01,2013-09-08 04:23:00,
2013-09-07 22:29:00,75.9,43.1,30.03,ENE,63,11.0,11.0,31,0.00,,---,0.00,VWS V14.01,2013-09-08 04:29:00,
2013-09-07 22:32:00,75.9,43.1,30.03,East,82,10.5,11.0,31,0.00,,---,0.00,VWS V14.01,2013-09-08 04:32:00,
2013-09-07 22:37:00,74.8,44.6,30.00,East,87,12.3,12.3,34,0.00,,---,0.00,VWS V14.01,2013-09-08 04:37:00,
2013-09-07 22:43:00,74.8,44.6,30.00,East,87,10.5,10.5,34,0.00,,---,0.00,VWS V14.01,2013-09-08 04:43:00,
2013-09-07 22:48:00,75.4,45.1,30.00,East,93,11.0,11.0,34,0.00,,---,0.00,VWS V14.01,2013-09-08 04:48:00,
2013-09-07 22:54:00,75.4,45.1,30.00,East,82,11.0,11.0,34,0.00,,---,0.00,VWS V14.01,2013-09-08 04:54:00,
2013-09-07 23:00:00,74.5,47.2,30.00,East,84,12.3,12.3,38,0.00,,---,0.00,VWS V14.01,2013-09-08 05:00:00,
2013-09-07 23:06:00,74.3,47.1,30.00,East,84,10.5,10.5,38,0.00,,---,0.00,VWS V14.01,2013-09-08 05:06:00,
2013-09-07 23:11:00,73.8,48.0,30.03,East,86,10.1,10.1,40,0.00,,---,0.00,VWS V14.01,2013-09-08 05:11:00,
2013-09-07 23:16:00,73.6,48.5,30.03,ENE,74,8.7,10.1,41,0.00,,---,0.00,VWS V14.01,2013-09-08 05:16:00,
2013-09-07 23:22:00,73.2,50.0,30.03,ENE,70,8.3,8.3,44,0.00,,---,0.00,VWS V14.01,2013-09-08 05:22:00,
2013-09-07 23:27:00,73.2,50.0,30.03,ENE,77,10.5,10.5,44,0.00,,---,0.00,VWS V14.01,2013-09-08 05:27:00,
2013-09-07 23:33:00,73.0,50.5,30.03,ENE,76,10.5,10.5,45,0.00,,---,0.00,VWS V14.01,2013-09-08 05:33:00,
2013-09-07 23:38:00,72.9,51.5,30.03,ENE,72,11.0,11.0,47,0.00,,---,0.00,VWS V14.01,2013-09-08 05:38:00,
2013-09-07 23:44:00,72.9,52.0,30.03,ENE,78,12.3,12.3,48,0.00,,---,0.00,VWS V14.01,2013-09-08 05:44:00,
2013-09-07 23:49:00,72.9,52.6,30.03,East,80,13.2,13.2,49,0.00,,---,0.00,VWS V14.01,2013-09-08 05:49:00,
2013-09-07 23:55:00,72.7,53.0,30.03,East,81,10.5,10.5,50,0.00,,---,0.00,VWS V14.01,2013-09-08 05:55:00,